Time;durP1;ratioP1;P1;durP2;ratioP2;P2;SDS_P1;SDS_P2;PMS_P1;PMS_P2;Temp;Humidity;BMP_temperature;BMP_pressure;BME280_temperature;BME280_humidity;BME280_pressure;Samples;Min_cycle;Max_cycle;Signal;HPM_P1;HPM_P2
2022/08/03 00:00:33;;;;;;;11.10;2.92;;;;;;;18.38;nan;101124.56;2033150;29;20040;-70
2022/08/03 00:01:37;;;;;;;14.02;2.45;;;;;;;;;;2040680;29;20428;-70
2022/08/03 00:02:39;;;;;;;11.90;2.30;;;;;;;18.37;nan;101122.94;2032978;29;20069;-70
2022/08/03 00:03:43;;;;;;;14.95;2.10;;;;;;;18.38;nan;101134.63;2025167;29;20040;-70
2022/08/03 00:04:47;;;;;;;6.25;1.88;;;;;;;18.38;nan;101121.00;2031480;29;20721;-71
2022/08/03 00:05:53;;;;;;;17.33;2.00;;;;;;;18.38;nan;101121.00;2032765;29;20047;-71
2022/08/03 00:06:56;;;;;;;6.05;1.60;;;;;;;18.39;nan;101115.25;2024992;29;20412;-71
2022/08/03 00:08:01;;;;;;;9.52;2.10;;;;;;;18.39;nan;101115.25;2023642;29;20040;-71
2022/08/03 00:09:09;;;;;;;7.85;1.40;;;;;;;18.41;nan;101118.47;2017849;29;20064;-71
2022/08/03 00:10:13;;;;;;;8.10;1.90;;;;;;;18.44;nan;101117.84;2033904;29;20078;-71
2022/08/03 00:11:15;;;;;;;4.68;1.48;;;;;;;18.44;nan;101117.00;2032263;29;20059;-70
2022/08/03 00:12:19;;;;;;;9.13;1.83;;;;;;;18.44;nan;101123.28;2024448;29;20035;-71
2022/08/03 00:13:23;;;;;;;8.13;1.55;;;;;;;18.42;nan;101122.78;2032728;29;20055;-71
2022/08/03 00:14:26;;;;;;;6.43;1.38;;;;;;;18.44;nan;101115.13;2032295;29;20048;-70
2022/08/03 00:15:33;;;;;;;10.20;1.50;;;;;;;18.44;nan;101112.41;2024841;29;20057;-70
2022/08/03 00:16:37;;;;;;;6.78;1.50;;;;;;;;;;2024902;29;20067;-71
2022/08/03 00:17:39;;;;;;;9.43;1.83;;;;;;;18.44;nan;101106.13;2032150;29;20052;-70
2022/08/03 00:18:44;;;;;;;5.40;1.40;;;;;;;18.46;nan;101098.44;2040738;29;20039;-71
2022/08/03 00:19:47;;;;;;;9.50;1.77;;;;;;;18.43;nan;101108.06;2039395;29;20425;-71
2022/08/03 00:20:50;;;;;;;8.07;1.35;;;;;;;18.45;nan;101114.00;2024986;29;20429;-71
2022/08/03 00:21:51;;;;;;;7.47;2.10;;;;;;;;;;2017226;29;20049;-71
2022/08/03 00:22:57;;;;;;;12.90;1.85;;;;;;;18.41;nan;101101.31;2017265;29;20041;-71
2022/08/03 00:23:59;;;;;;;8.95;1.67;;;;;;;;;;2017559;29;20096;-70
2022/08/03 00:25:02;;;;;;;6.45;1.73;;;;;;;18.40;nan;101110.59;2024983;29;20047;-70
2022/08/03 00:26:08;;;;;;;7.75;1.73;;;;;;;18.41;nan;101096.69;2016813;29;20045;-70
2022/08/03 00:27:10;;;;;;;8.52;2.15;;;;;;;18.41;nan;101106.75;2017804;29;20064;-70
2022/08/03 00:28:14;;;;;;;13.98;2.55;;;;;;;18.40;nan;101094.28;2009064;29;20049;-70
2022/08/03 00:29:16;;;;;;;10.20;2.47;;;;;;;18.41;nan;101096.69;2002496;29;20061;-70
2022/08/03 00:30:19;;;;;;;13.73;2.15;;;;;;;18.42;nan;101114.63;2024466;29;20033;-71
2022/08/03 00:31:24;;;;;;;6.88;1.58;;;;;;;18.44;nan;101109.66;2025161;29;20045;-70
2022/08/03 00:32:40;;;;;;;18.70;2.17;;;;;;;18.43;nan;101104.53;2040250;29;20096;-70
2022/08/03 00:33:43;;;;;;;13.65;1.80;;;;;;;18.45;nan;101089.47;2042718;29;20058;-70
2022/08/03 00:34:47;;;;;;;13.15;1.90;;;;;;;;;;2032408;29;20044;-71
2022/08/03 00:35:50;;;;;;;10.93;2.08;;;;;;;18.48;nan;101096.22;2017589;29;20053;-71
2022/08/03 00:36:55;;;;;;;9.60;1.90;;;;;;;18.45;nan;101096.84;2024807;29;20051;-70
2022/08/03 00:37:58;;;;;;;10.82;2.45;;;;;;;18.46;nan;101093.00;2032467;29;20143;-70
2022/08/03 00:39:00;;;;;;;8.40;2.13;;;;;;;18.49;nan;101103.25;2032655;29;20044;-70
2022/08/03 00:40:06;;;;;;;8.48;1.42;;;;;;;18.46;nan;101098.44;2040753;29;20035;-71
2022/08/03 00:41:12;;;;;;;13.68;2.17;;;;;;;;;;2039409;29;20043;-71
2022/08/03 00:42:14;;;;;;;14.50;1.70;;;;;;;18.44;nan;101085.16;2039878;29;20523;-70
2022/08/03 00:43:17;;;;;;;6.20;1.70;;;;;;;18.44;nan;101093.34;2038326;29;20059;-70
2022/08/03 00:44:22;;;;;;;7.50;1.95;;;;;;;18.48;nan;101096.22;2025303;29;20397;-71
2022/08/03 00:45:47;;;;;;;12.93;1.98;;;;;;;18.49;nan;101093.16;2027153;29;20429;-70
2022/08/03 00:46:52;;;;;;;10.45;1.42;;;;;;;18.52;nan;101091.72;2027483;29;20048;-70
2022/08/03 00:47:56;;;;;;;5.57;1.23;;;;;;;18.51;nan;101084.69;2031980;29;20071;-70
2022/08/03 00:49:07;;;;;;;10.45;1.48;;;;;;;18.49;nan;101092.38;2039665;29;20043;-71
2022/08/03 00:50:08;;;;;;;3.45;1.42;;;;;;;;;;2039102;29;20051;-69
2022/08/03 00:51:12;;;;;;;5.93;1.65;;;;;;;18.51;nan;101090.13;2040389;29;20039;-70
2022/08/03 00:52:14;;;;;;;11.68;1.67;;;;;;;;;;2038765;29;20056;-71
2022/08/03 00:53:16;;;;;;;8.20;1.42;;;;;;;18.53;nan;101098.78;2032592;29;20436;-69
2022/08/03 00:54:22;;;;;;;4.97;1.23;;;;;;;18.50;nan;101093.97;2040114;29;20036;-71
2022/08/03 00:55:28;;;;;;;6.88;1.80;;;;;;;18.51;nan;101090.13;2025370;29;20052;-69
2022/08/03 00:56:30;;;;;;;2.80;1.20;;;;;;;18.48;nan;101088.84;2027350;29;20511;-70
2022/08/03 00:57:38;;;;;;;7.43;1.27;;;;;;;18.50;nan;101094.75;2024198;29;20457;-71
2022/08/03 00:58:45;;;;;;;8.77;1.05;;;;;;;18.50;nan;101089.31;2031456;29;20523;-70
2022/08/03 00:59:50;;;;;;;9.15;1.27;;;;;;;18.52;nan;101092.53;2024663;29;20056;-71
2022/08/03 01:00:55;;;;;;;9.55;1.80;;;;;;;18.54;nan;101094.94;2027920;29;20044;-71
2022/08/03 01:02:00;;;;;;;4.60;1.48;;;;;;;18.55;nan;101096.53;2025242;29;20477;-71
2022/08/03 01:03:05;;;;;;;5.25;1.10;;;;;;;;;;2032953;29;20476;-71
2022/08/03 01:04:07;;;;;;;4.80;1.10;;;;;;;18.52;nan;101092.53;2032380;29;20036;-71
2022/08/03 01:05:10;;;;;;;6.65;1.13;;;;;;;18.51;nan;101084.69;2024731;29;20506;-70
2022/08/03 01:06:30;;;;;;;6.85;1.77;;;;;;;18.52;nan;101089.00;2032406;29;20048;-71
2022/08/03 01:07:57;;;;;;;21.48;1.73;;;;;;;18.51;nan;101090.13;2024278;29;20051;-71
2022/08/03 01:09:19;;;;;;;3.97;1.05;;;;;;;18.48;nan;101096.22;2028397;29;20052;-71
2022/08/03 01:10:38;;;;;;;6.60;1.10;;;;;;;18.50;nan;101093.97;2032442;29;20055;-71
2022/08/03 01:12:09;;;;;;;4.93;1.13;;;;;;;18.49;nan;101092.38;2034855;29;20055;-71
2022/08/03 01:13:24;;;;;;;5.05;1.15;;;;;;;;;;2036351;29;20052;-72
2022/08/03 01:14:57;;;;;;;7.10;1.10;;;;;;;18.50;nan;101083.88;2039468;29;20126;-71
2022/08/03 01:16:05;;;;;;;9.82;1.63;;;;;;;;;;2024184;29;20056;-71
2022/08/03 01:17:30;;;;;;;4.28;0.90;;;;;;;18.55;nan;101093.81;2018388;29;20053;-71
2022/08/03 01:18:31;;;;;;;2.95;1.13;;;;;;;18.55;nan;101096.53;2024279;29;20044;-71
2022/08/03 01:20:03;;;;;;;5.38;1.15;;;;;;;18.57;nan;101090.75;2024787;29;20056;-71
2022/08/03 01:21:24;;;;;;;6.30;1.10;;;;;;;18.55;nan;101087.56;2039940;29;20533;-71
2022/08/03 01:22:48;;;;;;;6.10;1.13;;;;;;;18.58;nan;101090.47;2032154;29;20051;-70
2022/08/03 01:24:14;;;;;;;9.20;1.40;;;;;;;18.60;nan;101082.78;2032196;29;20040;-71
2022/08/03 01:25:35;;;;;;;3.92;0.90;;;;;;;18.63;nan;101070.41;2032301;29;20044;-71
2022/08/03 01:27:01;;;;;;;5.00;0.90;;;;;;;18.62;nan;101075.06;2027085;29;20044;-71
2022/08/03 01:28:20;;;;;;;5.97;1.23;;;;;;;18.62;nan;101080.50;2035603;29;20055;-71
2022/08/03 01:29:45;;;;;;;2.80;1.10;;;;;;;18.60;nan;101077.34;2031868;29;20044;-71
2022/08/03 01:30:48;;;;;;;5.38;1.45;;;;;;;18.61;nan;101072.69;2032578;29;20502;-71
2022/08/03 01:31:57;;;;;;;4.93;1.38;;;;;;;;;;2032862;29;20036;-71
2022/08/03 01:33:08;;;;;;;5.72;1.08;;;;;;;18.54;nan;101067.72;2024214;29;20044;-71
2022/08/03 01:34:14;;;;;;;6.55;1.10;;;;;;;18.55;nan;101063.88;2033471;29;20044;-70
2022/08/03 01:35:24;;;;;;;6.05;1.20;;;;;;;18.57;nan;101071.69;2032285;29;20032;-71
2022/08/03 01:36:45;;;;;;;9.35;1.30;;;;;;;18.57;nan;101075.25;2025572;29;20433;-70
2022/08/03 01:37:54;;;;;;;2.40;1.27;;;;;;;18.61;nan;101067.22;2018894;29;20049;-71
2022/08/03 01:39:02;;;;;;;4.10;1.10;;;;;;;18.61;nan;101068.03;2015621;29;20072;-71
2022/08/03 01:40:04;;;;;;;3.38;1.13;;;;;;;;;;2024544;29;20044;-71
2022/08/03 01:41:09;;;;;;;5.72;1.20;;;;;;;18.62;nan;101075.06;2016573;29;20052;-71
2022/08/03 01:42:12;;;;;;;5.82;1.10;;;;;;;;;;2023125;29;20045;-71
2022/08/03 01:43:16;;;;;;;4.40;1.25;;;;;;;;;;2024205;29;20048;-71
2022/08/03 01:44:20;;;;;;;7.50;1.27;;;;;;;18.62;nan;101069.63;2024271;29;20408;-71
2022/08/03 01:45:26;;;;;;;5.88;1.30;;;;;;;18.62;nan;101075.06;2025644;29;20039;-71
2022/08/03 01:46:30;;;;;;;4.88;1.42;;;;;;;18.61;nan;101062.59;2032149;29;20535;-71
2022/08/03 01:47:32;;;;;;;4.05;1.25;;;;;;;;;;2017026;29;20399;-72
2022/08/03 01:48:38;;;;;;;5.40;1.15;;;;;;;18.65;nan;101074.44;2016923;29;20049;-71
2022/08/03 01:49:44;;;;;;;6.45;1.40;;;;;;;18.65;nan;101051.84;2040397;29;20043;-71
2022/08/03 01:50:46;;;;;;;4.60;1.52;;;;;;;;;;2046491;29;20050;-71
2022/08/03 01:51:50;;;;;;;3.28;1.40;;;;;;;;;;2032133;29;20048;-71
2022/08/03 01:52:53;;;;;;;3.50;1.30;;;;;;;18.66;nan;101070.59;2032099;29;20043;-72
2022/08/03 01:53:57;;;;;;;7.88;1.70;;;;;;;18.66;nan;101065.16;2032330;29;20036;-72
2022/08/03 01:55:02;;;;;;;5.65;1.50;;;;;;;18.67;nan;101055.84;2032185;29;20062;-72
2022/08/03 01:56:07;;;;;;;4.10;1.40;;;;;;;18.67;nan;101060.50;2024131;29;20056;-71
2022/08/03 01:57:10;;;;;;;6.85;1.55;;;;;;;18.68;nan;101056.66;2024005;29;20517;-72
2022/08/03 01:58:18;;;;;;;5.10;1.90;;;;;;;18.68;nan;101040.31;2016248;29;20033;-72
2022/08/03 01:59:20;;;;;;;4.43;1.25;;;;;;;;;;2025259;29;20037;-72
2022/08/03 02:00:22;;;;;;;6.47;1.60;;;;;;;;;;2031971;29;20035;-72
2022/08/03 02:01:26;;;;;;;8.23;1.40;;;;;;;18.68;nan;101056.66;2016461;29;20128;-72
2022/08/03 02:02:30;;;;;;;6.00;1.20;;;;;;;;;;2024464;29;20059;-71
2022/08/03 02:03:39;;;;;;;7.93;2.08;;;;;;;18.66;nan;101050.72;2038795;29;20047;-72
2022/08/03 02:04:44;;;;;;;4.72;1.40;;;;;;;18.66;nan;101059.72;2024285;29;20056;-71
2022/08/03 02:05:48;;;;;;;10.93;1.63;;;;;;;18.66;nan;101054.25;2023670;29;20056;-71
2022/08/03 02:06:58;;;;;;;3.60;1.63;;;;;;;18.63;nan;101054.91;2039856;29;20468;-72
2022/08/03 02:08:05;;;;;;;7.47;1.33;;;;;;;18.64;nan;101047.53;2030754;29;20056;-72
2022/08/03 02:09:08;;;;;;;5.03;1.70;;;;;;;18.62;nan;101053.28;2024729;29;20055;-72
2022/08/03 02:10:15;;;;;;;5.13;1.42;;;;;;;18.63;nan;101048.63;2032103;29;20051;-71
2022/08/03 02:11:17;;;;;;;4.93;1.20;;;;;;;18.62;nan;101053.28;2009690;29;20045;-72
2022/08/03 02:12:21;;;;;;;10.43;1.10;;;;;;;;;;2009298;29;20041;-71
2022/08/03 02:13:24;;;;;;;4.07;1.13;;;;;;;18.64;nan;101044.81;2024431;29;20044;-72
2022/08/03 02:14:27;;;;;;;8.07;1.23;;;;;;;18.64;nan;101040.16;2032051;29;20040;-71
2022/08/03 02:15:33;;;;;;;6.80;1.45;;;;;;;18.66;nan;101043.38;2023636;29;20045;-71
2022/08/03 02:16:37;;;;;;;7.30;1.27;;;;;;;18.64;nan;101045.59;2024655;29;20413;-72
2022/08/03 02:17:40;;;;;;;12.15;1.30;;;;;;;18.67;nan;101050.41;2024206;29;20047;-72
2022/08/03 02:18:42;;;;;;;7.43;1.48;;;;;;;18.68;nan;101051.22;2008960;29;20053;-72
2022/08/03 02:19:44;;;;;;;5.20;1.20;;;;;;;18.68;nan;101045.75;2016385;29;20369;-72
2022/08/03 02:20:46;;;;;;;13.73;1.40;;;;;;;;;;2023877;29;20049;-72
2022/08/03 02:21:47;;;;;;;6.20;1.38;;;;;;;;;;2016516;29;20413;-72
2022/08/03 02:22:49;;;;;;;6.35;1.40;;;;;;;18.70;nan;101044.31;2016499;29;20048;-72
2022/08/03 02:23:52;;;;;;;11.23;1.42;;;;;;;18.71;nan;101045.13;2024095;29;20550;-71
2022/08/03 02:24:54;;;;;;;5.22;1.48;;;;;;;18.69;nan;101042.69;2024089;29;20084;-72
2022/08/03 02:26:04;;;;;;;4.32;1.27;;;;;;;18.66;nan;101037.91;2024189;29;20037;-72
2022/08/03 02:27:10;;;;;;;;;;;;;;;18.67;nan;101039.50;2032150;29;20075;-72
2022/08/03 02:28:18;;;;;;;8.23;1.40;;;;;;;18.66;nan;101037.91;2023558;29;19919;-72
2022/08/03 02:29:25;;;;;;;4.75;1.25;;;;;;;18.65;nan;101040.94;2023488;29;20437;-72
2022/08/03 02:30:29;;;;;;;13.45;1.55;;;;;;;;;;2031640;29;20056;-71
2022/08/03 02:31:37;;;;;;;4.82;1.95;;;;;;;18.66;nan;101037.91;2034207;29;20566;-72
2022/08/03 02:32:39;;;;;;;6.22;1.25;;;;;;;;;;2031214;29;20055;-72
2022/08/03 02:33:47;;;;;;;11.23;1.70;;;;;;;;;;2031531;29;20060;-72
2022/08/03 02:34:53;;;;;;;8.52;1.55;;;;;;;;;;2029456;29;20059;-72
2022/08/03 02:36:02;;;;;;;2.72;1.02;;;;;;;18.68;nan;101024.75;2017505;29;20060;-72
2022/08/03 02:37:03;;;;;;;3.50;1.63;;;;;;;;;;2026482;29;20056;-72
2022/08/03 02:38:09;;;;;;;11.15;1.40;;;;;;;18.70;nan;101038.88;2022862;29;20052;-71
2022/08/03 02:39:14;;;;;;;4.72;1.17;;;;;;;18.73;nan;101027.38;2025568;29;20041;-72
2022/08/03 02:40:19;;;;;;;6.68;1.30;;;;;;;18.73;nan;101024.66;2033895;29;20075;-72
2022/08/03 02:41:29;;;;;;;3.47;1.25;;;;;;;18.74;nan;101039.84;2040631;29;20050;-71
2022/08/03 02:42:33;;;;;;;6.72;1.25;;;;;;;18.73;nan;101027.38;2026646;29;20516;-71
2022/08/03 02:43:36;;;;;;;4.55;1.35;;;;;;;18.74;nan;101028.16;2033515;29;20527;-72
2022/08/03 02:44:46;;;;;;;4.57;1.77;;;;;;;;;;2033175;29;20059;-71
2022/08/03 02:45:50;;;;;;;6.28;1.60;;;;;;;18.72;nan;101025.75;2026455;29;20041;-72
2022/08/03 02:46:56;;;;;;;5.43;1.20;;;;;;;18.74;nan;101023.50;2034048;29;20056;-71
2022/08/03 02:48:01;;;;;;;8.48;1.75;;;;;;;18.73;nan;101021.91;2032817;29;20047;-72
2022/08/03 02:49:05;;;;;;;3.90;1.35;;;;;;;18.75;nan;101030.56;2019464;29;20060;-72
2022/08/03 02:50:13;;;;;;;6.75;1.70;;;;;;;18.75;nan;101019.66;2033405;29;20044;-72
2022/08/03 02:51:20;;;;;;;7.85;2.00;;;;;;;18.75;nan;101025.09;2033483;29;20536;-72
2022/08/03 02:52:29;;;;;;;7.88;1.50;;;;;;;18.77;nan;101011.16;2017847;29;20048;-72
2022/08/03 02:53:35;;;;;;;4.15;1.45;;;;;;;18.74;nan;101028.97;2005718;29;20055;-72
2022/08/03 02:54:37;;;;;;;4.63;1.60;;;;;;;;;;2033649;29;20492;-71
2022/08/03 02:55:38;;;;;;;6.72;1.80;;;;;;;;;;2038268;29;20043;-72
2022/08/03 02:56:43;;;;;;;5.03;1.40;;;;;;;18.71;nan;101018.66;2025329;29;20040;-72
2022/08/03 02:57:46;;;;;;;9.27;1.67;;;;;;;18.72;nan;101019.47;2025433;29;20053;-72
2022/08/03 02:58:51;;;;;;;12.93;1.55;;;;;;;;;;2018147;29;20041;-71
2022/08/03 02:59:55;;;;;;;8.73;1.58;;;;;;;18.71;nan;101017.88;2017813;29;20053;-71
2022/08/03 03:00:58;;;;;;;11.30;1.88;;;;;;;18.71;nan;101029.56;2016835;29;20065;-72
2022/08/03 03:02:02;;;;;;;6.03;1.88;;;;;;;18.71;nan;101029.56;2003532;29;20041;-72
2022/08/03 03:03:09;;;;;;;9.52;1.58;;;;;;;18.69;nan;101023.63;2018675;29;20065;-71
2022/08/03 03:04:11;;;;;;;5.95;1.63;;;;;;;;;;2025889;29;20401;-72
2022/08/03 03:05:13;;;;;;;4.72;1.67;;;;;;;;;;2033315;29;20044;-72
2022/08/03 03:06:18;;;;;;;8.88;1.67;;;;;;;18.71;nan;101028.78;2025493;29;20540;-72
2022/08/03 03:07:20;;;;;;;5.28;1.42;;;;;;;18.70;nan;101027.19;2025996;29;20392;-71
2022/08/03 03:08:26;;;;;;;8.65;1.40;;;;;;;18.69;nan;101026.34;2025403;29;20047;-72
2022/08/03 03:09:32;;;;;;;4.00;1.30;;;;;;;18.70;nan;101059.88;2025448;29;20045;-72
2022/08/03 03:10:37;;;;;;;4.50;1.42;;;;;;;18.71;nan;101020.59;2033251;29;20055;-71
2022/08/03 03:11:39;;;;;;;4.38;1.40;;;;;;;;;;2024646;29;20061;-72
2022/08/03 03:12:43;;;;;;;8.25;1.77;;;;;;;18.72;nan;101022.19;2024446;29;20190;-72
2022/08/03 03:13:45;;;;;;;8.75;1.52;;;;;;;18.72;nan;101025.75;2032980;29;20052;-72
2022/08/03 03:14:48;;;;;;;5.82;1.65;;;;;;;18.72;nan;101025.75;2025322;29;20431;-72
2022/08/03 03:16:00;;;;;;;5.68;1.25;;;;;;;18.72;nan;101019.47;2017973;29;20060;-72
2022/08/03 03:17:02;;;;;;;6.18;1.75;;;;;;;;;;2024614;29;20068;-72
2022/08/03 03:18:05;;;;;;;4.60;1.48;;;;;;;;;;2025337;29;20049;-71
2022/08/03 03:19:10;;;;;;;7.60;1.95;;;;;;;18.72;nan;101024.91;2017464;29;20049;-72
2022/08/03 03:20:15;;;;;;;6.22;1.55;;;;;;;18.73;nan;101018.41;2019001;29;20064;-72
2022/08/03 03:21:19;;;;;;;6.50;2.47;;;;;;;18.74;nan;101060.84;2032596;29;20039;-72
2022/08/03 03:22:25;;;;;;;5.10;1.35;;;;;;;18.76;nan;101025.94;2040737;29;20047;-72
2022/08/03 03:23:27;;;;;;;8.27;1.63;;;;;;;;;;2040179;29;20396;-71
2022/08/03 03:24:31;;;;;;;6.47;1.67;;;;;;;18.75;nan;101019.66;2032827;29;20059;-72
2022/08/03 03:25:35;;;;;;;7.60;1.40;;;;;;;18.76;nan;101025.94;2023944;29;20497;-72
2022/08/03 03:26:38;;;;;;;9.30;1.67;;;;;;;18.77;nan;101026.72;2033122;29;20059;-72
2022/08/03 03:27:41;;;;;;;9.35;1.67;;;;;;;18.75;nan;101030.56;2033564;29;20052;-72
2022/08/03 03:28:43;;;;;;;6.32;1.48;;;;;;;18.74;nan;101061.66;2033083;29;20051;-72
2022/08/03 03:29:47;;;;;;;7.63;1.50;;;;;;;18.77;nan;101032.97;2032920;29;20040;-73
2022/08/03 03:30:50;;;;;;;7.15;1.50;;;;;;;18.78;nan;101028.31;2032809;29;20507;-72
2022/08/03 03:31:52;;;;;;;6.50;1.70;;;;;;;18.79;nan;101036.19;2030755;29;20036;-72
2022/08/03 03:32:56;;;;;;;8.43;1.92;;;;;;;18.79;nan;101025.28;2017488;29;20068;-72
2022/08/03 03:33:58;;;;;;;2.97;1.38;;;;;;;;;;2025469;29;20107;-72
2022/08/03 03:35:02;;;;;;;6.95;1.60;;;;;;;18.81;nan;101017.56;2032653;29;20051;-72
2022/08/03 03:36:06;;;;;;;6.13;1.50;;;;;;;18.83;nan;101020.00;2032963;29;20044;-72
2022/08/03 03:37:09;;;;;;;6.93;1.67;;;;;;;18.84;nan;101027.03;2033213;29;20051;-72
2022/08/03 03:38:12;;;;;;;6.95;1.50;;;;;;;18.86;nan;101031.03;2025435;29;20048;-72
2022/08/03 03:39:14;;;;;;;6.50;1.67;;;;;;;18.87;nan;101038.06;2033108;29;20140;-72
2022/08/03 03:40:18;;;;;;;9.13;1.63;;;;;;;18.88;nan;101033.41;2032876;29;20051;-73
2022/08/03 03:41:21;;;;;;;5.70;1.63;;;;;;;18.90;nan;101053.78;2025725;29;20049;-72
2022/08/03 03:42:24;;;;;;;10.93;2.38;;;;;;;18.92;nan;101034.41;2017315;29;20396;-72
2022/08/03 03:43:26;;;;;;;7.35;2.28;;;;;;;;;;2025543;29;20044;-71
2022/08/03 03:44:29;;;;;;;6.00;1.80;;;;;;;18.93;nan;101033.25;2032062;29;20035;-71
2022/08/03 03:45:34;;;;;;;7.60;1.80;;;;;;;18.93;nan;101031.34;2017821;29;20506;-71
2022/08/03 03:46:36;;;;;;;6.72;2.00;;;;;;;;;;2024671;29;20053;-72
2022/08/03 03:47:40;;;;;;;6.03;1.75;;;;;;;18.94;nan;101026.69;2031121;29;20055;-72
2022/08/03 03:48:45;;;;;;;4.90;1.90;;;;;;;18.96;nan;101024.44;2025125;29;20044;-72
2022/08/03 03:49:49;;;;;;;4.75;1.88;;;;;;;18.97;nan;101020.59;2025594;29;20044;-72
2022/08/03 03:50:56;;;;;;;6.43;1.90;;;;;;;18.96;nan;101036.13;2026867;29;20056;-71
2022/08/03 03:51:57;;;;;;;4.40;1.52;;;;;;;;;;2026794;29;20047;-72
2022/08/03 03:53:01;;;;;;;6.40;1.70;;;;;;;18.99;nan;101034.69;2032179;29;20496;-72
2022/08/03 03:54:07;;;;;;;5.60;1.70;;;;;;;19.02;nan;101030.53;2032992;29;20036;-72
2022/08/03 03:55:09;;;;;;;11.43;1.90;;;;;;;19.03;nan;101029.41;2040726;29;20048;-72
2022/08/03 03:56:13;;;;;;;5.70;2.03;;;;;;;;;;2032822;29;20043;-71
2022/08/03 03:57:15;;;;;;;5.50;1.80;;;;;;;19.03;nan;101027.47;2033133;29;20048;-72
2022/08/03 03:58:17;;;;;;;10.55;1.80;;;;;;;19.04;nan;101037.25;2040841;29;20035;-72
2022/08/03 03:59:20;;;;;;;7.65;2.45;;;;;;;19.07;nan;101030.34;2032708;29;20153;-72
2022/08/03 04:00:22;;;;;;;11.50;2.10;;;;;;;19.08;nan;101031.97;2025237;29;20048;-72
2022/08/03 04:01:25;;;;;;;7.35;2.70;;;;;;;19.10;nan;101035.16;2037500;29;20056;-72
2022/08/03 04:02:28;;;;;;;8.73;2.50;;;;;;;19.13;nan;101029.03;2040100;29;20043;-71
2022/08/03 04:03:31;;;;;;;8.70;2.38;;;;;;;19.15;nan;101037.72;2040743;29;20039;-72
2022/08/03 04:11:20;;;;;;;7.53;2.30;;;;;;;;;;2028153;29;20059;-72
2022/08/03 04:12:25;;;;;;;10.50;2.75;;;;;;;;;;2018928;29;20036;-72
2022/08/03 04:13:35;;;;;;;9.63;2.80;;;;;;;;;;2025761;29;20040;-72
2022/08/03 04:14:40;;;;;;;5.15;2.08;;;;;;;;;;2032715;29;20063;-72
2022/08/03 04:15:46;;;;;;;6.75;1.98;;;;;;;20.33;nan;101037.81;2033470;29;20052;-72
2022/08/03 04:16:52;;;;;;;6.65;1.80;;;;;;;20.23;nan;101049.09;2040645;29;20067;-72
2022/08/03 04:17:57;;;;;;;7.75;1.92;;;;;;;;;;2032635;29;20064;-72
2022/08/03 04:19:09;;;;;;;15.77;1.80;;;;;;;20.11;nan;101041.66;2025565;29;20513;-71
2022/08/03 04:20:13;;;;;;;6.88;1.70;;;;;;;20.11;nan;101040.81;2032788;29;20055;-72
2022/08/03 04:21:26;;;;;;;5.57;1.73;;;;;;;20.13;nan;101044.84;2040451;29;20476;-72
2022/08/03 04:22:31;;;;;;;7.78;1.73;;;;;;;20.21;nan;101045.09;2030504;29;20059;-72
2022/08/03 04:23:36;;;;;;;5.35;1.80;;;;;;;20.24;nan;101052.63;2032953;29;20401;-72
2022/08/03 04:24:42;;;;;;;5.05;1.67;;;;;;;20.23;nan;101056.50;2048398;29;20042;-72
2022/08/03 04:25:45;;;;;;;9.23;1.83;;;;;;;20.23;nan;101053.78;2047289;29;20055;-72
2022/08/03 04:26:52;;;;;;;4.38;1.80;;;;;;;20.24;nan;101049.91;2048443;29;20031;-72
2022/08/03 04:28:00;;;;;;;5.82;1.65;;;;;;;20.23;nan;101053.78;2039059;29;20055;-72
2022/08/03 04:29:09;;;;;;;9.00;2.42;;;;;;;20.21;nan;101047.81;2031320;29;20047;-72
2022/08/03 04:30:11;;;;;;;5.53;1.85;;;;;;;20.18;nan;101052.03;2017813;29;20056;-72
2022/08/03 04:31:13;;;;;;;6.25;1.65;;;;;;;;;;2024448;29;20052;-72
2022/08/03 04:32:19;;;;;;;6.68;1.75;;;;;;;20.19;nan;101055.56;2024854;29;20048;-73
2022/08/03 04:33:23;;;;;;;5.38;2.00;;;;;;;20.20;nan;101059.88;2033227;29;20141;-72
2022/08/03 04:34:28;;;;;;;9.60;4.40;;;;;;;20.20;nan;101054.44;2024765;29;20040;-72
2022/08/03 04:35:33;;;;;;;9.40;3.30;;;;;;;;;;2026098;29;20570;-72
2022/08/03 04:36:46;;;;;;;6.22;2.72;;;;;;;20.23;nan;101048.31;2032564;29;20059;-72
2022/08/03 04:37:52;;;;;;;4.38;1.83;;;;;;;20.25;nan;101062.44;2021141;29;20041;-72
2022/08/03 04:39:08;;;;;;;3.88;1.48;;;;;;;20.27;nan;101055.53;2022067;29;20048;-72
2022/08/03 04:40:14;;;;;;;8.20;1.70;;;;;;;;;;2037868;29;20051;-72
2022/08/03 04:41:17;;;;;;;8.57;1.90;;;;;;;20.36;nan;101064.44;2033189;29;20495;-72
2022/08/03 04:42:21;;;;;;;5.97;2.22;;;;;;;20.48;nan;101058.25;2040439;29;20509;-72
2022/08/03 04:43:26;;;;;;;12.35;1.80;;;;;;;20.59;nan;101062.22;2030601;29;20052;-73
2022/08/03 04:44:34;;;;;;;7.40;2.13;;;;;;;20.68;nan;101064.06;2020834;29;20688;-72
2022/08/03 04:45:39;;;;;;;8.73;2.47;;;;;;;20.72;nan;101059.53;2032387;29;20674;-72
2022/08/03 04:46:43;;;;;;;7.45;1.70;;;;;;;20.93;nan;101059.50;2032853;29;20048;-72
2022/08/03 04:47:46;;;;;;;5.07;1.50;;;;;;;21.22;nan;101061.31;2045526;29;20515;-72
2022/08/03 04:48:48;;;;;;;11.25;1.80;;;;;;;21.32;nan;101057.34;2039867;29;20040;-72
2022/08/03 04:49:54;;;;;;;5.60;1.85;;;;;;;21.36;nan;101061.03;2039933;29;20039;-72
2022/08/03 04:50:56;;;;;;;7.53;1.65;;;;;;;21.40;nan;101056.47;2023784;29;20452;-73
2022/08/03 04:52:01;;;;;;;5.32;1.40;;;;;;;21.36;nan;101050.06;2009668;29;20037;-72
2022/08/03 04:53:07;;;;;;;7.47;2.08;;;;;;;21.28;nan;101054.50;2024681;29;20059;-73
2022/08/03 04:54:14;;;;;;;5.95;1.50;;;;;;;21.24;nan;101065.28;2032847;29;20052;-73
2022/08/03 04:55:25;;;;;;;4.18;1.55;;;;;;;;;;2031532;29;20432;-73
2022/08/03 04:56:31;;;;;;;11.35;2.00;;;;;;;21.25;nan;101055.97;2026169;29;20052;-72
2022/08/03 04:57:33;;;;;;;9.88;1.73;;;;;;;;;;2032582;29;20040;-73
2022/08/03 04:58:36;;;;;;;6.72;1.52;;;;;;;21.20;nan;101058.91;2032410;29;20040;-72
2022/08/03 04:59:53;;;;;;;9.73;1.80;;;;;;;21.27;nan;101061.06;2022413;29;20774;-73
2022/08/03 05:00:55;;;;;;;6.97;1.73;;;;;;;21.72;nan;101057.50;2013820;29;20041;-73
2022/08/03 05:01:57;;;;;;;3.25;1.58;;;;;;;21.90;nan;101064.34;2024607;29;20051;-73
2022/08/03 05:02:59;;;;;;;3.80;1.40;;;;;;;21.81;nan;101063.66;2024861;29;20049;-73
2022/08/03 05:04:03;;;;;;;5.05;1.60;;;;;;;21.71;nan;101067.66;2040205;29;20040;-72
2022/08/03 05:05:08;;;;;;;5.32;1.50;;;;;;;21.64;nan;101072.91;2031137;29;20055;-73
2022/08/03 05:06:11;;;;;;;6.53;1.48;;;;;;;21.61;nan;101079.06;2016694;29;20406;-72
2022/08/03 05:07:14;;;;;;;5.78;1.40;;;;;;;21.58;nan;101073.47;2016938;29;20061;-73
2022/08/03 05:08:16;;;;;;;5.10;1.35;;;;;;;21.58;nan;101073.47;2032214;29;20400;-73
2022/08/03 05:09:19;;;;;;;5.22;1.50;;;;;;;21.55;nan;101068.69;2032401;29;20045;-73
2022/08/03 05:10:21;;;;;;;4.68;2.20;;;;;;;21.54;nan;101072.56;2024871;29;20393;-73
2022/08/03 05:11:25;;;;;;;5.93;2.20;;;;;;;21.56;nan;101075.75;2024890;29;20044;-73
2022/08/03 05:12:28;;;;;;;2.83;1.60;;;;;;;21.61;nan;101078.28;2039769;29;20051;-73
2022/08/03 05:13:35;;;;;;;5.35;1.77;;;;;;;21.62;nan;101082.59;2031448;29;20063;-72
2022/08/03 05:14:38;;;;;;;8.10;2.00;;;;;;;21.61;nan;101083.75;2024313;29;20063;-73
2022/08/03 05:15:50;;;;;;;7.07;2.17;;;;;;;21.63;nan;101087.75;2024567;29;20044;-73
2022/08/03 05:16:53;;;;;;;3.30;1.45;;;;;;;;;;2025570;29;20056;-73
2022/08/03 05:18:00;;;;;;;3.20;1.48;;;;;;;21.76;nan;101085.81;2031984;29;20074;-73
2022/08/03 05:19:03;;;;;;;3.95;1.40;;;;;;;21.74;nan;101090.81;2032476;29;20044;-73
2022/08/03 05:20:06;;;;;;;5.53;1.80;;;;;;;21.78;nan;101083.50;2032320;29;20040;-73
2022/08/03 05:21:08;;;;;;;5.25;1.50;;;;;;;21.82;nan;101089.91;2024404;29;20059;-73
2022/08/03 05:22:18;;;;;;;5.25;1.30;;;;;;;21.85;nan;101091.97;2024439;29;20037;-73
2022/08/03 05:23:20;;;;;;;5.10;1.38;;;;;;;21.87;nan;101086.94;2026399;29;20062;-72
2022/08/03 05:24:28;;;;;;;9.20;1.60;;;;;;;21.89;nan;101095.63;2023260;29;20048;-73
2022/08/03 05:25:31;;;;;;;8.15;1.45;;;;;;;21.90;nan;101090.94;2015664;29;20056;-72
2022/08/03 05:26:34;;;;;;;5.88;1.67;;;;;;;21.89;nan;101084.66;2010858;29;20061;-72
2022/08/03 05:27:37;;;;;;;4.60;1.38;;;;;;;21.88;nan;101088.56;2024672;29;20057;-73
2022/08/03 05:28:40;;;;;;;3.78;1.65;;;;;;;21.88;nan;101120.59;2024593;29;20040;-72
2022/08/03 05:29:42;;;;;;;7.40;1.60;;;;;;;21.89;nan;101090.16;2016787;29;20441;-72
2022/08/03 05:30:46;;;;;;;7.85;1.70;;;;;;;21.90;nan;101096.41;2009382;29;20495;-72
2022/08/03 05:31:49;;;;;;;6.75;1.60;;;;;;;21.92;nan;101094.94;2021270;29;20516;-73